createdAt,value
2023-06-22T00:00:08.302Z,9.358479
2023-06-22T00:01:08.303Z,9.358483
2023-06-22T00:02:08.290Z,9.358478
2023-06-22T00:03:08.368Z,9.358484
2023-06-22T00:04:08.283Z,9.358513
2023-06-22T00:05:08.251Z,9.358508
2023-06-22T00:06:08.245Z,9.358472
2023-06-22T00:07:08.211Z,9.358433
2023-06-22T00:08:08.207Z,9.358440
2023-06-22T00:09:08.205Z,9.358459
2023-06-22T00:10:09.180Z,9.358550
2023-06-22T00:11:08.179Z,9.358568
2023-06-22T00:12:08.158Z,9.358551
2023-06-22T00:13:08.141Z,9.358537
2023-06-22T00:14:08.130Z,9.358552
2023-06-22T00:15:08.154Z,9.358558
2023-06-22T00:16:08.126Z,9.358600
2023-06-22T00:17:08.101Z,9.358489
2023-06-22T00:18:08.132Z,9.358458
2023-06-22T00:19:08.116Z,9.358498
2023-06-22T00:20:08.068Z,9.358456
2023-06-22T00:21:08.075Z,9.358427
2023-06-22T00:22:08.035Z,9.358428
2023-06-22T00:23:08.035Z,9.358434
2023-06-22T00:24:08.012Z,9.358443
2023-06-22T00:25:08.018Z,9.358472
2023-06-22T00:26:07.988Z,9.358418
2023-06-22T00:27:07.983Z,9.358374
2023-06-22T00:28:08.025Z,9.358388
2023-06-22T00:29:08.079Z,9.358419
2023-06-22T00:30:07.956Z,9.358492
2023-06-22T00:31:07.966Z,9.358513
2023-06-22T00:32:07.925Z,9.358459
2023-06-22T00:33:07.933Z,9.358479
2023-06-22T00:34:07.905Z,9.358432
2023-06-22T00:35:07.903Z,9.358460
2023-06-22T00:36:07.891Z,9.358487
2023-06-22T00:37:07.876Z,9.358458
2023-06-22T00:38:07.875Z,9.358457
2023-06-22T00:39:07.854Z,9.358457
2023-06-22T00:40:07.851Z,9.358429
2023-06-22T00:41:07.827Z,9.358437
2023-06-22T00:42:07.817Z,9.358468
2023-06-22T00:43:07.830Z,9.358503
2023-06-22T00:44:07.828Z,9.358499
2023-06-22T00:45:07.787Z,9.358520
2023-06-22T00:46:07.762Z,9.358557
2023-06-22T00:47:07.793Z,9.358598
2023-06-22T00:48:07.785Z,9.358611
2023-06-22T00:49:07.731Z,9.358578
2023-06-22T00:50:07.726Z,9.358583
2023-06-22T00:51:07.734Z,9.358546
2023-06-22T00:52:07.696Z,9.358505
2023-06-22T00:53:07.665Z,9.358418
2023-06-22T00:54:08.721Z,9.358424
2023-06-22T00:55:07.658Z,9.358506
2023-06-22T00:56:07.654Z,9.358550
2023-06-22T00:57:07.675Z,9.358535
2023-06-22T00:58:07.637Z,9.358492
2023-06-22T00:59:07.604Z,9.358512
2023-06-22T01:00:07.616Z,9.358521
2023-06-22T01:01:07.610Z,9.358488
2023-06-22T01:02:07.629Z,9.358469
2023-06-22T01:03:07.705Z,9.358409
2023-06-22T01:04:07.688Z,9.358438
2023-06-22T01:05:07.545Z,9.358463
2023-06-22T01:06:07.544Z,9.358457
2023-06-22T01:07:07.540Z,9.358414
2023-06-22T01:08:07.501Z,9.358468
2023-06-22T01:09:07.505Z,9.358527
2023-06-22T01:10:07.490Z,9.358500
2023-06-22T01:11:07.490Z,9.358510
2023-06-22T01:12:07.492Z,9.358521
2023-06-22T01:13:07.470Z,9.358489
2023-06-22T01:14:07.451Z,9.358542
2023-06-22T01:15:07.438Z,9.358509
2023-06-22T01:16:07.431Z,9.358573
2023-06-22T01:17:07.417Z,9.358617
2023-06-22T01:18:07.426Z,9.358523
2023-06-22T01:19:07.393Z,9.358499
2023-06-22T01:20:07.388Z,9.358479
2023-06-22T01:21:07.364Z,9.358497
2023-06-22T01:22:07.351Z,9.358541
2023-06-22T01:23:07.349Z,9.358501
2023-06-22T01:24:07.344Z,9.358515
2023-06-22T01:25:07.332Z,9.358479
2023-06-22T01:26:07.298Z,9.358529
2023-06-22T01:27:07.294Z,9.358488
2023-06-22T01:28:07.280Z,9.358497
2023-06-22T01:29:07.295Z,9.358532
2023-06-22T01:30:07.253Z,9.358594
2023-06-22T01:31:07.280Z,9.358623
2023-06-22T01:32:09.337Z,9.358601
2023-06-22T01:33:08.286Z,9.358577
2023-06-22T01:34:07.280Z,9.358584
2023-06-22T01:35:07.198Z,9.358586
2023-06-22T01:36:07.217Z,9.358581
2023-06-22T01:37:07.174Z,9.358549
2023-06-22T01:38:07.171Z,9.358720
2023-06-22T01:39:07.170Z,9.358587
2023-06-22T01:40:07.214Z,9.358576
2023-06-22T01:41:07.134Z,9.358568
2023-06-22T01:42:07.127Z,9.358535
2023-06-22T01:43:07.136Z,9.358520
2023-06-22T01:44:07.112Z,9.358568
2023-06-22T01:45:07.091Z,9.358568
2023-06-22T01:46:07.078Z,9.358479
2023-06-22T01:47:07.062Z,9.358503
2023-06-22T01:48:07.121Z,9.358566
2023-06-22T01:49:07.060Z,9.358622
2023-06-22T01:50:07.042Z,9.358603
2023-06-22T01:51:07.013Z,9.358568
2023-06-22T01:52:07.016Z,9.358607
2023-06-22T01:53:07.007Z,9.358582
2023-06-22T01:54:07.018Z,9.358474
2023-06-22T01:55:06.964Z,9.358459
2023-06-22T01:56:06.961Z,9.358466
2023-06-22T01:57:06.947Z,9.358482
2023-06-22T01:58:06.959Z,9.358548
2023-06-22T01:59:06.932Z,9.358603
2023-06-22T02:00:06.933Z,9.358584
2023-06-22T02:01:06.897Z,9.358541
2023-06-22T02:02:06.965Z,9.358531
2023-06-22T02:03:06.945Z,9.358553
2023-06-22T02:04:07.029Z,9.358524
2023-06-22T02:05:06.865Z,9.358551
2023-06-22T02:06:06.856Z,9.358553
2023-06-22T02:07:06.841Z,9.358543
2023-06-22T02:08:06.829Z,9.358477
2023-06-22T02:09:06.813Z,9.358492
2023-06-22T02:10:06.805Z,9.358500
2023-06-22T02:11:06.809Z,9.358535
2023-06-22T02:12:06.771Z,9.358556
2023-06-22T02:13:06.767Z,9.358566
2023-06-22T02:14:06.764Z,9.358545
2023-06-22T02:15:06.741Z,9.358604
2023-06-22T02:16:06.729Z,9.358605
2023-06-22T02:17:06.709Z,9.358582
2023-06-22T02:18:06.760Z,9.358606
2023-06-22T02:19:06.694Z,9.358680
2023-06-22T02:20:06.688Z,9.358597
2023-06-22T02:21:06.697Z,9.358568
2023-06-22T02:22:06.662Z,9.358588
2023-06-22T02:23:06.639Z,9.358592
2023-06-22T02:24:06.642Z,9.358612
2023-06-22T02:25:06.648Z,9.358554
2023-06-22T02:26:06.619Z,9.358517
2023-06-22T02:27:06.616Z,9.358527
2023-06-22T02:28:06.607Z,9.358555
2023-06-22T02:29:06.578Z,9.358514
2023-06-22T02:30:06.589Z,9.358524
2023-06-22T02:31:06.576Z,9.358487
2023-06-22T02:32:06.544Z,9.358548
2023-06-22T02:33:06.570Z,9.358582
2023-06-22T02:34:06.538Z,9.358581
2023-06-22T02:35:06.512Z,9.358615
2023-06-22T02:36:06.567Z,9.358610
2023-06-22T02:37:06.496Z,9.358607
2023-06-22T02:38:06.472Z,9.358604
2023-06-22T02:39:06.463Z,9.358584
2023-06-22T02:40:06.455Z,9.358526
2023-06-22T02:41:06.455Z,9.358498
2023-06-22T02:42:06.438Z,9.358488
2023-06-22T02:43:06.430Z,9.358527
2023-06-22T02:44:06.414Z,9.358561
2023-06-22T02:45:06.407Z,9.358624
2023-06-22T02:46:06.406Z,9.358565
2023-06-22T02:47:06.405Z,9.358537
2023-06-22T02:48:06.396Z,9.358564
2023-06-22T02:49:06.354Z,9.358642
2023-06-22T02:50:06.345Z,9.358569
2023-06-22T02:51:06.333Z,9.358567
2023-06-22T02:52:06.328Z,9.358502
2023-06-22T02:53:06.310Z,9.358536
2023-06-22T02:54:06.383Z,9.358521
2023-06-22T02:55:06.284Z,9.358553
2023-06-22T02:56:06.289Z,9.358547
2023-06-22T02:57:06.283Z,9.358556
2023-06-22T02:58:06.258Z,9.358583
2023-06-22T02:59:06.239Z,9.358581
2023-06-22T03:00:06.240Z,9.358624
2023-06-22T03:01:06.323Z,9.358583
2023-06-22T03:02:06.194Z,9.358559
2023-06-22T03:03:06.277Z,9.358607
2023-06-22T03:04:06.321Z,9.358512
2023-06-22T03:05:06.188Z,9.358476
2023-06-22T03:06:06.175Z,9.358515
2023-06-22T03:07:06.825Z,9.358536
2023-06-22T03:08:06.130Z,9.358658
2023-06-22T03:09:06.355Z,9.358632
2023-06-22T03:10:06.112Z,9.358611
2023-06-22T03:11:06.112Z,9.358613
2023-06-22T03:12:06.080Z,9.358559
2023-06-22T03:13:06.080Z,9.358572
2023-06-22T03:14:06.062Z,9.358621
2023-06-22T03:15:06.048Z,9.358635
2023-06-22T03:16:06.052Z,9.358592
2023-06-22T03:17:06.048Z,9.358617
2023-06-22T03:18:06.088Z,9.358623
2023-06-22T03:19:06.034Z,9.358646
2023-06-22T03:20:05.999Z,9.358595
2023-06-22T03:21:05.980Z,9.358593
2023-06-22T03:22:05.979Z,9.358557
2023-06-22T03:23:05.988Z,9.358517
2023-06-22T03:24:05.938Z,9.358531
2023-06-22T03:25:05.937Z,9.358553
2023-06-22T03:26:05.930Z,9.358556
2023-06-22T03:27:05.973Z,9.358623
2023-06-22T03:28:05.903Z,9.358621
2023-06-22T03:29:05.989Z,9.358551
2023-06-22T03:30:05.881Z,9.358552
2023-06-22T03:31:05.888Z,9.358581
2023-06-22T03:32:05.969Z,9.358585
2023-06-22T03:33:05.889Z,9.358581
2023-06-22T03:34:05.861Z,9.358585
2023-06-22T03:35:05.825Z,9.358558
2023-06-22T03:36:05.876Z,9.358535
2023-06-22T03:37:05.805Z,9.358531
2023-06-22T03:38:05.828Z,9.358578
2023-06-22T03:39:05.770Z,9.358563
2023-06-22T03:40:05.786Z,9.358521
2023-06-22T03:41:05.753Z,9.358517
2023-06-22T03:42:05.760Z,9.358541
2023-06-22T03:43:05.734Z,9.358523
2023-06-22T03:44:05.734Z,9.358510
2023-06-22T03:45:05.725Z,9.358487
2023-06-22T03:46:05.769Z,9.358504
2023-06-22T03:47:05.683Z,9.358482
2023-06-22T03:48:05.732Z,9.358549
2023-06-22T03:49:05.832Z,9.358548
2023-06-22T03:50:05.725Z,9.358559
2023-06-22T03:51:05.666Z,9.358567
2023-06-22T03:52:05.637Z,9.358496
2023-06-22T03:53:05.626Z,9.358495
2023-06-22T03:54:05.655Z,9.358504
2023-06-22T03:55:05.605Z,9.358504
2023-06-22T03:56:05.598Z,9.358503
2023-06-22T03:57:05.590Z,9.358479
2023-06-22T03:58:05.573Z,9.358537
2023-06-22T03:59:05.550Z,9.358548
2023-06-22T04:00:05.586Z,9.358523
2023-06-22T04:01:05.533Z,9.358552
2023-06-22T04:02:05.507Z,9.358578
2023-06-22T04:03:05.533Z,9.358556
2023-06-22T04:04:05.636Z,9.358615
2023-06-22T04:05:05.584Z,9.358580
2023-06-22T04:06:05.495Z,9.358600
2023-06-22T04:07:05.460Z,9.358542
2023-06-22T04:08:05.450Z,9.358594
2023-06-22T04:09:05.439Z,9.358557
2023-06-22T04:10:05.406Z,9.358561
2023-06-22T04:11:05.437Z,9.358526
2023-06-22T04:12:05.381Z,9.358548
2023-06-22T04:13:05.389Z,9.358470
2023-06-22T04:14:05.377Z,9.358501
2023-06-22T04:15:05.366Z,9.358583
2023-06-22T04:16:05.380Z,9.358571
2023-06-22T04:17:05.336Z,9.358569
2023-06-22T04:18:05.361Z,9.358503
2023-06-22T04:19:05.306Z,9.358505
2023-06-22T04:20:05.334Z,9.358537
2023-06-22T04:21:05.295Z,9.358589
2023-06-22T04:22:05.276Z,9.358512
2023-06-22T04:23:05.278Z,9.358503
2023-06-22T04:24:05.270Z,9.358547
2023-06-22T04:25:05.242Z,9.358547
2023-06-22T04:26:05.239Z,9.358510
2023-06-22T04:27:05.246Z,9.358511
2023-06-22T04:28:05.229Z,9.358516
2023-06-22T04:29:05.201Z,9.358511
2023-06-22T04:30:05.186Z,9.358492
2023-06-22T04:31:05.258Z,9.358512
2023-06-22T04:32:05.169Z,9.358518
2023-06-22T04:33:05.202Z,9.358546
2023-06-22T04:34:05.149Z,9.358554
2023-06-22T04:35:05.137Z,9.358593
2023-06-22T04:36:05.118Z,9.358617
2023-06-22T04:37:05.160Z,9.358624
2023-06-22T04:38:05.090Z,9.358604
2023-06-22T04:39:05.078Z,9.358527
2023-06-22T04:40:05.128Z,9.358576
2023-06-22T04:41:05.083Z,9.358582
2023-06-22T04:42:05.072Z,9.358609
2023-06-22T04:43:05.063Z,9.358658
2023-06-22T04:44:05.037Z,9.358613
2023-06-22T04:45:05.023Z,9.358555
2023-06-22T04:46:05.076Z,9.358573
2023-06-22T04:47:05.116Z,9.358625
2023-06-22T04:48:05.041Z,9.358562
2023-06-22T04:49:04.979Z,9.358582
2023-06-22T04:50:04.961Z,9.358711
2023-06-22T04:51:04.978Z,9.358551
2023-06-22T04:52:04.921Z,9.358508
2023-06-22T04:53:04.939Z,9.358503
2023-06-22T04:54:04.919Z,9.358566
2023-06-22T04:55:04.925Z,9.358573
2023-06-22T04:56:04.881Z,9.358558
2023-06-22T04:57:04.879Z,9.358586
2023-06-22T04:58:04.896Z,9.358685
2023-06-22T04:59:04.869Z,9.358632
2023-06-22T05:00:04.852Z,9.358605
2023-06-22T05:01:04.838Z,9.358470
2023-06-22T05:02:04.847Z,9.358470
2023-06-22T05:03:18.662Z,9.358524
2023-06-22T05:04:07.067Z,9.358576
2023-06-22T05:05:04.872Z,9.358603
2023-06-22T05:06:04.797Z,9.358615
2023-06-22T05:07:04.776Z,9.358578
2023-06-22T05:08:04.799Z,9.358589
2023-06-22T05:09:04.763Z,9.358660
2023-06-22T05:10:04.741Z,9.358677
2023-06-22T05:11:05.974Z,9.358571
2023-06-22T05:12:07.127Z,9.358527
2023-06-22T05:13:04.687Z,9.358522
2023-06-22T05:14:04.694Z,9.358516
2023-06-22T05:15:04.672Z,9.358522
2023-06-22T05:16:04.755Z,9.358570
2023-06-22T05:17:04.676Z,9.358581
2023-06-22T05:18:04.722Z,9.358627
2023-06-22T05:19:04.806Z,9.358645
2023-06-22T05:20:04.639Z,9.358541
2023-06-22T05:21:04.631Z,9.358494
2023-06-22T05:22:04.613Z,9.358578
2023-06-22T05:23:05.614Z,9.358590
2023-06-22T05:24:04.580Z,9.358567
2023-06-22T05:25:04.575Z,9.358542
2023-06-22T05:26:04.585Z,9.358702
2023-06-22T05:27:04.568Z,9.358650
2023-06-22T05:28:04.552Z,9.358639
2023-06-22T05:29:04.515Z,9.358584
2023-06-22T05:30:04.513Z,9.358594
2023-06-22T05:31:04.514Z,9.358634
2023-06-22T05:32:04.494Z,9.358573
2023-06-22T05:33:04.604Z,9.358632
2023-06-22T05:34:04.507Z,9.358657
2023-06-22T05:35:04.464Z,9.358583
2023-06-22T05:36:04.479Z,9.358582
2023-06-22T05:37:04.441Z,9.358447
2023-06-22T05:38:04.415Z,9.358400
2023-06-22T05:39:05.445Z,9.358454
2023-06-22T05:40:04.395Z,9.358448
2023-06-22T05:41:04.397Z,9.358533
2023-06-22T05:42:04.376Z,9.358563
2023-06-22T05:43:04.381Z,9.358570
2023-06-22T05:44:04.379Z,9.358528
2023-06-22T05:45:04.356Z,9.358438
2023-06-22T05:46:04.329Z,9.358415
2023-06-22T05:47:04.334Z,9.358535
2023-06-22T05:48:04.432Z,9.358590
2023-06-22T05:49:04.321Z,9.358618
2023-06-22T05:50:04.323Z,9.358602
2023-06-22T05:51:04.282Z,9.358561
2023-06-22T05:52:04.300Z,9.358537
2023-06-22T05:53:04.272Z,9.358521
2023-06-22T05:54:04.244Z,9.358520
2023-06-22T05:55:04.250Z,9.358559
2023-06-22T05:56:05.224Z,9.358664
2023-06-22T05:57:04.225Z,9.358619
2023-06-22T05:58:04.230Z,9.358603
2023-06-22T05:59:04.186Z,9.358657
2023-06-22T06:00:04.190Z,9.358596
2023-06-22T06:01:04.179Z,9.358553
2023-06-22T06:02:04.192Z,9.358551
2023-06-22T06:03:04.356Z,9.358593
2023-06-22T06:04:04.184Z,9.358635
2023-06-22T06:05:04.147Z,9.358672
2023-06-22T06:06:04.123Z,9.358731
2023-06-22T06:07:05.105Z,9.358718
2023-06-22T06:08:04.138Z,9.358606
2023-06-22T06:09:04.078Z,9.358562
2023-06-22T06:10:04.073Z,9.358504
2023-06-22T06:11:04.088Z,9.358504
2023-06-22T06:12:04.056Z,9.358543
2023-06-22T06:13:04.065Z,9.358579
2023-06-22T06:14:04.024Z,9.358588
2023-06-22T06:15:04.016Z,9.358585
2023-06-22T06:16:04.017Z,9.358644
2023-06-22T06:17:03.998Z,9.358690
2023-06-22T06:18:04.033Z,9.358623
2023-06-22T06:19:04.001Z,9.358627
2023-06-22T06:20:03.966Z,9.358630
2023-06-22T06:21:03.960Z,9.358625
2023-06-22T06:22:03.942Z,9.358571
2023-06-22T06:23:03.936Z,9.358536
2023-06-22T06:24:03.919Z,9.358586
2023-06-22T06:25:03.898Z,9.358602
2023-06-22T06:26:03.909Z,9.358532
2023-06-22T06:27:03.891Z,9.358513
2023-06-22T06:28:03.868Z,9.358576
2023-06-22T06:29:03.864Z,9.358572
2023-06-22T06:30:03.900Z,9.358563
2023-06-22T06:31:04.027Z,9.358581
2023-06-22T06:32:04.027Z,9.358601
2023-06-22T06:33:03.889Z,9.358573
2023-06-22T06:34:03.853Z,9.358587
2023-06-22T06:35:03.810Z,9.358534
2023-06-22T06:36:03.808Z,9.358562
2023-06-22T06:37:03.806Z,9.358559
2023-06-22T06:38:03.852Z,9.358587
2023-06-22T06:39:03.763Z,9.358527
2023-06-22T06:40:03.766Z,9.358572
2023-06-22T06:41:03.780Z,9.358583
2023-06-22T06:42:03.747Z,9.358532
2023-06-22T06:43:03.734Z,9.358528
2023-06-22T06:44:03.716Z,9.358547
2023-06-22T06:45:03.719Z,9.358543
2023-06-22T06:46:03.798Z,9.358584
2023-06-22T06:47:03.664Z,9.358638
2023-06-22T06:48:03.754Z,9.358611
2023-06-22T06:49:03.676Z,9.358580
2023-06-22T06:50:03.662Z,9.358515
2023-06-22T06:51:03.675Z,9.358519
2023-06-22T06:52:03.618Z,9.358538
2023-06-22T06:53:03.675Z,9.358529
2023-06-22T06:54:03.711Z,9.358534
2023-06-22T06:55:03.615Z,9.358524
2023-06-22T06:56:03.595Z,9.358536
2023-06-22T06:57:03.601Z,9.358542
2023-06-22T06:58:03.705Z,9.358558
2023-06-22T06:59:03.567Z,9.358576
2023-06-22T07:00:03.544Z,9.358578
2023-06-22T07:01:03.539Z,9.358550
2023-06-22T07:02:03.563Z,9.358534
2023-06-22T07:03:03.607Z,9.358521
2023-06-22T07:04:03.531Z,9.358521
2023-06-22T07:05:03.490Z,9.358525
2023-06-22T07:06:03.492Z,9.358589
2023-06-22T07:07:03.482Z,9.358578
2023-06-22T07:08:03.458Z,9.358621
2023-06-22T07:09:03.432Z,9.358693
2023-06-22T07:10:05.525Z,9.358655
2023-06-22T07:11:03.447Z,9.358617
2023-06-22T07:12:03.558Z,9.358622
2023-06-22T07:13:03.413Z,9.358612
2023-06-22T07:14:03.397Z,9.358542
2023-06-22T07:15:03.401Z,9.358550
2023-06-22T07:16:03.365Z,9.358476
2023-06-22T07:17:03.393Z,9.358438
2023-06-22T07:18:03.393Z,9.358475
2023-06-22T07:19:03.345Z,9.358503
2023-06-22T07:20:03.355Z,9.358490
2023-06-22T07:21:03.301Z,9.358477
2023-06-22T07:22:03.333Z,9.358454
2023-06-22T07:23:03.314Z,9.358476
2023-06-22T07:24:03.317Z,9.358475
2023-06-22T07:25:03.272Z,9.358454
2023-06-22T07:26:03.310Z,9.358491
2023-06-22T07:27:03.345Z,9.358468
2023-06-22T07:28:03.409Z,9.358470
2023-06-22T07:29:03.257Z,9.358492
2023-06-22T07:30:03.215Z,9.358504
2023-06-22T07:31:03.323Z,9.358521
2023-06-22T07:32:03.211Z,9.358524
2023-06-22T07:33:03.257Z,9.358457
2023-06-22T07:34:03.219Z,9.358418
2023-06-22T07:35:03.169Z,9.358454
2023-06-22T07:36:03.153Z,9.358431
2023-06-22T07:37:03.177Z,9.358489
2023-06-22T07:38:06.056Z,9.358590
2023-06-22T07:39:04.133Z,9.358593
2023-06-22T07:40:03.142Z,9.358597
2023-06-22T07:41:03.122Z,9.358558
2023-06-22T07:42:03.110Z,9.358534
2023-06-22T07:43:03.230Z,9.358582
2023-06-22T07:44:03.095Z,9.358584
2023-06-22T07:45:03.057Z,9.358561
2023-06-22T07:46:04.045Z,9.358508
2023-06-22T07:47:03.042Z,9.358479
2023-06-22T07:48:03.133Z,9.358458
2023-06-22T07:49:03.043Z,9.358529
2023-06-22T07:50:03.028Z,9.358508
2023-06-22T07:51:03.018Z,9.358500
2023-06-22T07:52:04.477Z,9.358526
2023-06-22T07:53:02.987Z,9.358519
2023-06-22T07:54:02.955Z,9.358541
2023-06-22T07:55:02.986Z,9.358495
2023-06-22T07:56:02.983Z,9.358486
2023-06-22T07:57:02.934Z,9.358496
2023-06-22T07:58:02.973Z,9.358494
2023-06-22T07:59:02.911Z,9.358547
2023-06-22T08:00:02.896Z,9.358537
2023-06-22T08:01:02.887Z,9.358474
2023-06-22T08:02:02.963Z,9.358463
2023-06-22T08:03:02.937Z,9.358501
2023-06-22T08:04:02.932Z,9.358509
2023-06-22T08:05:10.936Z,9.358544
2023-06-22T08:06:04.835Z,9.358575
2023-06-22T08:07:02.836Z,9.358554
2023-06-22T08:08:02.861Z,9.358524
2023-06-22T08:09:02.819Z,9.358541
2023-06-22T08:10:02.806Z,9.358516
2023-06-22T08:11:02.784Z,9.358517
2023-06-22T08:12:02.777Z,9.358542
2023-06-22T08:13:02.763Z,9.358600
2023-06-22T08:14:02.888Z,9.358466
2023-06-22T08:15:02.768Z,9.358421
2023-06-22T08:16:02.716Z,9.358478
2023-06-22T08:17:02.723Z,9.358499
2023-06-22T08:18:02.739Z,9.358540
2023-06-22T08:19:02.710Z,9.358551
2023-06-22T08:20:02.705Z,9.358521
2023-06-22T08:21:16.157Z,9.358488
2023-06-22T08:22:02.682Z,9.358501
2023-06-22T08:23:02.679Z,9.358529
2023-06-22T08:24:02.658Z,9.358562
2023-06-22T08:25:02.630Z,9.358559
2023-06-22T08:26:02.605Z,9.358573
2023-06-22T08:27:02.610Z,9.358599
2023-06-22T08:28:03.608Z,9.358575
2023-06-22T08:29:02.584Z,9.358533
2023-06-22T08:30:02.584Z,9.358511
2023-06-22T08:31:02.558Z,9.358500
2023-06-22T08:32:02.629Z,9.358518
2023-06-22T08:33:02.613Z,9.358524
2023-06-22T08:34:02.542Z,9.358501
2023-06-22T08:35:02.530Z,9.358485
2023-06-22T08:36:02.545Z,9.358452
2023-06-22T08:37:02.504Z,9.358438
2023-06-22T08:38:02.490Z,9.358415
2023-06-22T08:39:02.650Z,9.358479
2023-06-22T08:40:02.553Z,9.358559
2023-06-22T08:41:02.465Z,9.358589
2023-06-22T08:42:02.438Z,9.358564
2023-06-22T08:43:02.457Z,9.358541
2023-06-22T08:44:02.432Z,9.358501
2023-06-22T08:45:02.395Z,9.358496
2023-06-22T08:46:02.432Z,9.358506
2023-06-22T08:47:02.395Z,9.358492
2023-06-22T08:48:02.446Z,9.358454
2023-06-22T08:49:02.389Z,9.358464
2023-06-22T08:50:03.358Z,9.358521
2023-06-22T08:51:02.357Z,9.358545
2023-06-22T08:52:02.357Z,9.358528
2023-06-22T08:53:02.345Z,9.358540
2023-06-22T08:54:02.328Z,9.358517
2023-06-22T08:55:02.327Z,9.358530
2023-06-22T08:56:02.292Z,9.358528
2023-06-22T08:57:02.301Z,9.358545
2023-06-22T08:58:02.301Z,9.358570
2023-06-22T08:59:02.275Z,9.358550
2023-06-22T09:00:02.255Z,9.358547
2023-06-22T09:01:02.257Z,9.358529
2023-06-22T09:02:02.283Z,9.358556
2023-06-22T09:03:02.488Z,9.358576
2023-06-22T09:04:02.280Z,9.358570
2023-06-22T09:05:02.410Z,9.358569
2023-06-22T09:06:02.239Z,9.358607
2023-06-22T09:07:02.196Z,9.358611
2023-06-22T09:08:02.177Z,9.358591
2023-06-22T09:09:02.183Z,9.358541
2023-06-22T09:10:04.203Z,9.358528
2023-06-22T09:11:03.137Z,9.358569
2023-06-22T09:12:02.139Z,9.358539
2023-06-22T09:13:02.146Z,9.358544
2023-06-22T09:14:02.150Z,9.358541
2023-06-22T09:15:02.108Z,9.358499
2023-06-22T09:16:02.090Z,9.358469
2023-06-22T09:17:02.072Z,9.358515
2023-06-22T09:18:02.096Z,9.358573
2023-06-22T09:19:02.070Z,9.358521
2023-06-22T09:20:02.053Z,9.358584
2023-06-22T09:21:02.037Z,9.358557
2023-06-22T09:22:02.048Z,9.358507
2023-06-22T09:23:02.011Z,9.358513
2023-06-22T09:24:02.005Z,9.358535
2023-06-22T09:25:02.013Z,9.358531
2023-06-22T09:26:01.997Z,9.358492
2023-06-22T09:27:01.990Z,9.358483
2023-06-22T09:28:01.978Z,9.358469
2023-06-22T09:29:01.968Z,9.358483
2023-06-22T09:30:01.940Z,9.358473
2023-06-22T09:31:01.992Z,9.358481
2023-06-22T09:32:02.175Z,9.358520
2023-06-22T09:33:01.961Z,9.358469
2023-06-22T09:34:01.901Z,9.358472
2023-06-22T09:35:01.910Z,9.358492
2023-06-22T09:36:01.889Z,9.358536
2023-06-22T09:37:01.959Z,9.358558
2023-06-22T09:38:01.901Z,9.358593
2023-06-22T09:39:01.858Z,9.358581
2023-06-22T09:40:01.860Z,9.358653
2023-06-22T09:41:01.819Z,9.358590
2023-06-22T09:42:01.835Z,9.358547
2023-06-22T09:43:01.800Z,9.358521
2023-06-22T09:44:01.786Z,9.358545
2023-06-22T09:45:01.802Z,9.358550
2023-06-22T09:46:01.772Z,9.358539
2023-06-22T09:47:02.779Z,9.358567
2023-06-22T09:48:01.800Z,9.358568
2023-06-22T09:49:01.746Z,9.358550
2023-06-22T09:50:01.808Z,9.358543
2023-06-22T09:51:01.724Z,9.358538
2023-06-22T09:52:01.714Z,9.358492
2023-06-22T09:53:01.692Z,9.358504
2023-06-22T09:54:01.691Z,9.358562
2023-06-22T09:55:01.703Z,9.358577
2023-06-22T09:56:01.652Z,9.358587
2023-06-22T09:57:01.665Z,9.358604
2023-06-22T09:58:01.655Z,9.358626
2023-06-22T09:59:13.982Z,9.358617
2023-06-22T10:00:03.621Z,9.358517
2023-06-22T10:01:01.649Z,9.358540
2023-06-22T10:02:01.692Z,9.358584
2023-06-22T10:03:02.051Z,9.358563
2023-06-22T10:04:01.931Z,9.358598
2023-06-22T10:05:01.989Z,9.358636
2023-06-22T10:06:01.663Z,9.358541
2023-06-22T10:07:01.570Z,9.358545
2023-06-22T10:08:01.553Z,9.358556
2023-06-22T10:09:01.547Z,9.358509
2023-06-22T10:10:01.520Z,9.358567
2023-06-22T10:11:01.524Z,9.358552
2023-06-22T10:12:01.512Z,9.358505
2023-06-22T10:13:01.490Z,9.358523
2023-06-22T10:14:01.504Z,9.358528
2023-06-22T10:15:01.479Z,9.358519
2023-06-22T10:16:01.462Z,9.358504
2023-06-22T10:17:01.479Z,9.358500
2023-06-22T10:18:01.507Z,9.358461
2023-06-22T10:19:01.440Z,9.358427
2023-06-22T10:20:01.426Z,9.358445
2023-06-22T10:21:01.409Z,9.358477
2023-06-22T10:22:01.408Z,9.358496
2023-06-22T10:23:01.404Z,9.358566
2023-06-22T10:24:01.377Z,9.358601
2023-06-22T10:25:01.362Z,9.358464
2023-06-22T10:26:01.384Z,9.358455
2023-06-22T10:27:01.365Z,9.358480
2023-06-22T10:28:01.350Z,9.358460
2023-06-22T10:29:16.019Z,9.358489
2023-06-22T10:30:03.338Z,9.358485
2023-06-22T10:31:01.394Z,9.358465
2023-06-22T10:32:01.334Z,9.358450
2023-06-22T10:33:01.360Z,9.358474
2023-06-22T10:34:01.292Z,9.358566
2023-06-22T10:35:01.287Z,9.358585
2023-06-22T10:36:01.276Z,9.358566
2023-06-22T10:37:01.295Z,9.358636
2023-06-22T10:38:01.255Z,9.358654
2023-06-22T10:39:01.230Z,9.358633
2023-06-22T10:40:01.236Z,9.358581
2023-06-22T10:41:01.213Z,9.358590
2023-06-22T10:42:01.222Z,9.358588
2023-06-22T10:43:01.246Z,9.358512
2023-06-22T10:44:01.204Z,9.358546
2023-06-22T10:45:01.186Z,9.358554
2023-06-22T10:46:01.168Z,9.358517
2023-06-22T10:47:01.175Z,9.358537
2023-06-22T10:48:01.235Z,9.358518
2023-06-22T10:49:01.140Z,9.358541
2023-06-22T10:50:01.140Z,9.358577
2023-06-22T10:51:01.144Z,9.358624
2023-06-22T10:52:01.117Z,9.358706
2023-06-22T10:53:01.119Z,9.358660
2023-06-22T10:54:01.175Z,9.358625
2023-06-22T10:55:01.079Z,9.358535
2023-06-22T10:56:01.357Z,9.358567
2023-06-22T10:57:01.063Z,9.358618
2023-06-22T10:58:01.062Z,9.358603
2023-06-22T10:59:01.039Z,9.358612
2023-06-22T11:00:01.079Z,9.358627
2023-06-22T11:01:01.102Z,9.358611
2023-06-22T11:02:01.054Z,9.358614
2023-06-22T11:03:01.133Z,9.358675
2023-06-22T11:04:01.170Z,9.358693
2023-06-22T11:05:00.971Z,9.358619
2023-06-22T11:06:00.986Z,9.358558
2023-06-22T11:07:00.969Z,9.358528
2023-06-22T11:08:00.967Z,9.358520
2023-06-22T11:09:05.373Z,9.358596
2023-06-22T11:10:02.944Z,9.358509
2023-06-22T11:11:00.923Z,9.358536
2023-06-22T11:12:00.988Z,9.358528
2023-06-22T11:13:00.948Z,9.358503
2023-06-22T11:14:00.908Z,9.358491
2023-06-22T11:15:00.908Z,9.358492
2023-06-22T11:16:00.882Z,9.358556
2023-06-22T11:17:00.869Z,9.358616
2023-06-22T11:18:00.936Z,9.358574
2023-06-22T11:19:00.851Z,9.358569
2023-06-22T11:20:00.853Z,9.358545
2023-06-22T11:21:00.833Z,9.358532
2023-06-22T11:22:00.823Z,9.358513
2023-06-22T11:23:00.813Z,9.358515
2023-06-22T11:24:00.815Z,9.358545
2023-06-22T11:25:00.804Z,9.358590
2023-06-22T11:26:00.776Z,9.358579
2023-06-22T11:27:00.779Z,9.358575
2023-06-22T11:28:00.763Z,9.358561
2023-06-22T11:29:00.770Z,9.358574
2023-06-22T11:30:00.773Z,9.358549
2023-06-22T11:31:04.941Z,9.358535
2023-06-22T11:32:01.809Z,9.358517
2023-06-22T11:33:00.902Z,9.358500
2023-06-22T11:34:00.703Z,9.358506
2023-06-22T11:35:00.698Z,9.358521
2023-06-22T11:36:00.687Z,9.358550
2023-06-22T11:37:00.690Z,9.358545
2023-06-22T11:38:00.664Z,9.358551
2023-06-22T11:39:00.665Z,9.358514
2023-06-22T11:40:07.265Z,9.358491
2023-06-22T11:41:02.623Z,9.358537
2023-06-22T11:42:00.649Z,9.358522
2023-06-22T11:43:00.622Z,9.358512
2023-06-22T11:44:00.603Z,9.358499